EDDE/ERF METAR and TAF weather

Enter ICAO airport designator
Station Type Date Time Source
EDDE METAR 2021/07/29 02:50 UTC NOAA

EDDE 290250Z 22009KT 9999 FEW030 15/13 Q1012


Station Type Date Time Source
EDDE Decoded METAR 2021/07/29 02:50 UTC NOAA

Erfurt-Bindersleben, Germany (EDDE) 50-59N 010-58E 322M
Jul 28, 2021 - 10:50 PM EDT / 2021.07.29 0250 UTC
Wind: from the SW (220 degrees) at 10 MPH (9 KT):0
Visibility: greater than 7 mile(s):0
Sky conditions: mostly clear
Temperature: 59 F (15 C)
Dew Point: 55 F (13 C)
Relative Humidity: 87%
Pressure (altimeter): 29.88 in. Hg (1012 hPa)
ob: EDDE 290250Z 22009KT 9999 FEW030 15/13 Q1012
cycle: 3

Station Type Date Time Source
EDDE TAF 2021/07/28 18:27 UTC NOAA

TAF TAF EDDE 281700Z 2818/2918 22007KT CAVOK
BECMG 2907/2909 24015G25KT
BECMG 2916/2918 27008KT

Example: see airport list